Chris — V7XF8 — position and weather

sailwx.info

Track history (hours):
 
Tides and Currents Weather Stations Pressure Air Temp Water Temp Dewpoint Dewpoint Depression Visibility Wind Speed Wind Dir Waves Ship Positions

Chris

Last reported at 2014-Sep-05 13:31 UTC. Time now 2014-Sep-16 07:26 UTC.
Position S 34°50' E 018°33'.
Warning: this ship's position is 10 days out of date.

Length 218 m; draft 7.6 m.

Type: Ship. MMSI: 538004472.

Date/timePositionNaut miles runAvg speedWind from/ knotsBaromVisibWave heightAir tempDewpointWater temp
2014-Sep-05 13:31S 34°50' E 018°33'1111.0
2014-Sep-05 12:30S 34°51' E 018°47'1210.7
2014-Sep-05 11:23S 34°53' E 019°01'1010.6
2014-Sep-05 10:28S 34°54' E 019°13'1010.5
2014-Sep-05 09:28S 34°56' E 019°26'19111.2
2014-Sep-04 16:24S 34°39' E 023°17'1412.4
2014-Sep-04 15:18S 34°37' E 023°34'3812.4
2014-Sep-04 12:17S 34°31' E 024°19'20812.9
2014-Sep-03 20:07S 34°02' E 028°28'9212.0
2014-Sep-03 12:31S 33°46' E 030°16'3511.7
2014-Sep-03 09:30S 33°40' E 030°58'3811.9
2014-Sep-03 06:19S 33°36' E 031°44'  
Track history (hours):
 
Tides and Currents Weather Stations Pressure Air Temp Water Temp Dewpoint Dewpoint Depression Visibility Wind Speed Wind Dir Waves Ship Positions

Chris

Last reported at 2014-Sep-05 13:31 UTC. Time now 2014-Sep-16 07:26 UTC.
Position S 34°50' E 018°33'.
Warning: this ship's position is 10 days out of date.

Length 218 m; draft 7.6 m.

Type: Ship. MMSI: 538004472.

Date/timePositionNaut miles runAvg speedWind from/ knotsBaromVisibWave heightAir tempDewpointWater temp
2014-Sep-05 13:31S 34°50' E 018°33'1111.0
2014-Sep-05 12:30S 34°51' E 018°47'1210.7
2014-Sep-05 11:23S 34°53' E 019°01'1010.6
2014-Sep-05 10:28S 34°54' E 019°13'1010.5
2014-Sep-05 09:28S 34°56' E 019°26'19111.2
2014-Sep-04 16:24S 34°39' E 023°17'1412.4
2014-Sep-04 15:18S 34°37' E 023°34'3812.4
2014-Sep-04 12:17S 34°31' E 024°19'20812.9
2014-Sep-03 20:07S 34°02' E 028°28'9212.0
2014-Sep-03 12:31S 33°46' E 030°16'3511.7
2014-Sep-03 09:30S 33°40' E 030°58'3811.9
2014-Sep-03 06:19S 33°36' E 031°44'  

Dump ship's entire track history